createdAt,value
2018-12-30T00:00:28.510Z,1.10
2018-12-30T00:05:33.885Z,0.60
2018-12-30T00:10:39.322Z,0.40
2018-12-30T00:15:44.676Z,0.80
2018-12-30T00:20:49.979Z,1.10
2018-12-30T00:25:55.609Z,0.65
2018-12-30T00:31:00.894Z,1.03
2018-12-30T00:36:06.439Z,0.60
2018-12-30T00:41:11.867Z,1.40
2018-12-30T00:46:17.198Z,2.73
2018-12-30T00:51:22.556Z,0.20
2018-12-30T00:56:28.002Z,0.10
2018-12-30T01:01:33.484Z,0.20
2018-12-30T01:06:38.886Z,0.30
2018-12-30T01:11:44.305Z,0.70
2018-12-30T01:16:49.471Z,2.37
2018-12-30T01:21:54.918Z,0.40
2018-12-30T01:27:00.207Z,0.60
2018-12-30T01:32:05.532Z,0.47
2018-12-30T01:37:10.753Z,0.40
2018-12-30T01:42:16.124Z,0.50
2018-12-30T01:47:21.433Z,0.80
2018-12-30T01:52:26.755Z,0.70
2018-12-30T01:57:32.059Z,0.50
2018-12-30T02:02:37.404Z,0.60
2018-12-30T02:07:42.674Z,1.50
2018-12-30T02:12:48.098Z,1.93
2018-12-30T02:17:53.448Z,2.07
2018-12-30T02:22:58.794Z,2.10
2018-12-30T02:33:15.388Z,0.40
2018-12-30T02:38:20.686Z,0.50
2018-12-30T02:43:26.211Z,0.63
2018-12-30T02:48:31.539Z,0.90
2018-12-30T02:58:45.579Z,1.60
2018-12-30T03:03:51.879Z,2.30
2018-12-30T03:08:58.535Z,0.80
2018-12-30T03:14:03.886Z,1.20
2018-12-30T03:19:09.670Z,0.47
2018-12-30T03:24:14.998Z,0.50
2018-12-30T03:29:20.454Z,0.77
2018-12-30T03:40:03.918Z,0.50
2018-12-30T03:45:09.233Z,0.90
2018-12-30T03:50:14.643Z,1.33
2018-12-30T03:55:20.178Z,0.97
2018-12-30T04:05:33.330Z,1.60
2018-12-30T04:10:38.541Z,2.20
2018-12-30T04:15:43.966Z,4.17
2018-12-30T04:20:49.280Z,4.70
2018-12-30T04:25:54.540Z,5.07
2018-12-30T04:30:59.815Z,3.40
2018-12-30T04:36:05.091Z,2.20
2018-12-30T04:41:10.340Z,0.60
2018-12-30T04:46:15.753Z,1.47
2018-12-30T04:51:21.042Z,0.70
2018-12-30T04:56:26.344Z,0.40
2018-12-30T05:01:31.574Z,0.17
2018-12-30T05:06:36.827Z,0.10
2018-12-30T05:11:42.262Z,0.10
2018-12-30T05:16:47.619Z,0.10
2018-12-30T05:21:52.890Z,0.10
2018-12-30T05:26:58.230Z,0.20
2018-12-30T05:32:03.469Z,0.20
2018-12-30T05:37:08.822Z,0.50
2018-12-30T05:42:14.122Z,0.60
2018-12-30T05:47:19.494Z,0.90
2018-12-30T05:52:24.870Z,1.17
2018-12-30T05:57:30.145Z,1.40
2018-12-30T06:02:35.389Z,1.90
2018-12-30T06:07:40.659Z,0.82
2018-12-30T06:12:45.914Z,0.40
2018-12-30T06:17:51.391Z,0.30
2018-12-30T06:22:56.741Z,0.20
2018-12-30T06:28:02.099Z,0.20
2018-12-30T06:33:07.434Z,0.23
2018-12-30T06:38:12.758Z,0.27
2018-12-30T06:43:18.210Z,0.50
2018-12-30T06:48:24.091Z,0.40
2018-12-30T06:53:29.375Z,0.60
2018-12-30T06:58:34.609Z,0.90
2018-12-30T07:03:39.834Z,1.55
2018-12-30T07:08:45.108Z,1.17
2018-12-30T07:13:50.370Z,0.60
2018-12-30T07:18:55.734Z,0.60
2018-12-30T07:24:01.126Z,0.77
2018-12-30T07:29:06.564Z,1.03
2018-12-30T07:34:11.919Z,1.00
2018-12-30T07:39:17.229Z,1.40
2018-12-30T07:44:22.590Z,0.90
2018-12-30T07:49:27.945Z,1.67
2018-12-30T07:54:33.263Z,0.97
2018-12-30T07:59:38.655Z,0.93
2018-12-30T08:04:44.194Z,1.90
2018-12-30T08:09:49.774Z,1.30
2018-12-30T08:14:55.259Z,1.20
2018-12-30T08:20:01.915Z,0.10
2018-12-30T08:25:08.799Z,0.10
2018-12-30T08:30:14.168Z,0.10
2018-12-30T08:35:19.780Z,0.60
2018-12-30T08:40:25.279Z,1.00
2018-12-30T08:45:30.820Z,1.13
2018-12-30T08:50:36.350Z,2.33
2018-12-30T08:55:41.789Z,2.33
2018-12-30T09:00:47.305Z,1.80
2018-12-30T09:05:52.857Z,1.40
2018-12-30T09:10:58.346Z,0.60
2018-12-30T09:16:03.845Z,1.23
2018-12-30T09:21:09.336Z,1.50
2018-12-30T09:31:55.280Z,0.80
2018-12-30T09:42:40.358Z,0.10
2018-12-30T09:47:45.871Z,0.30
2018-12-30T09:52:51.375Z,0.40
2018-12-30T09:57:57.147Z,0.27
2018-12-30T10:03:02.616Z,0.60
2018-12-30T10:08:08.114Z,0.67
2018-12-30T10:13:13.800Z,0.60
2018-12-30T10:18:19.515Z,0.57
2018-12-30T10:23:25.065Z,1.10
2018-12-30T10:28:30.473Z,0.80
2018-12-30T10:33:35.898Z,0.70
2018-12-30T10:38:44.076Z,1.05
2018-12-30T10:43:49.520Z,0.70
2018-12-30T10:48:55.073Z,0.50
2018-12-30T10:59:38.679Z,0.37
2018-12-30T11:04:44.206Z,0.60
2018-12-30T11:09:49.667Z,0.93
2018-12-30T11:14:55.146Z,0.60
2018-12-30T11:20:00.839Z,0.50
2018-12-30T11:25:07.455Z,0.40
2018-12-30T11:30:13.057Z,0.30
2018-12-30T11:36:49.958Z,0.47
2018-12-30T11:40:26.727Z,0.30
2018-12-30T11:45:32.474Z,0.30
2018-12-30T11:50:38.137Z,0.50
2018-12-30T11:55:43.656Z,0.40
2018-12-30T12:00:49.284Z,0.30
2018-12-30T12:05:54.798Z,0.50
2018-12-30T12:11:02.337Z,0.40
2018-12-30T12:21:17.785Z,0.30
2018-12-30T12:26:23.423Z,0.30
2018-12-30T12:31:29.026Z,0.40
2018-12-30T12:36:34.544Z,0.40
2018-12-30T12:41:40.404Z,0.40
2018-12-30T12:46:46.025Z,0.67
2018-12-30T12:51:51.602Z,0.37
2018-12-30T12:56:57.213Z,0.50
2018-12-30T13:02:02.801Z,0.40
2018-12-30T13:07:08.562Z,0.80
2018-12-30T13:12:14.342Z,0.50
2018-12-30T13:17:20.022Z,0.20
2018-12-30T13:22:25.902Z,0.40
2018-12-30T13:27:31.402Z,0.20
2018-12-30T13:32:37.113Z,0.30
2018-12-30T13:37:42.822Z,0.20
2018-12-30T13:42:48.462Z,0.63
2018-12-30T13:47:54.167Z,1.20
2018-12-30T13:52:59.844Z,1.60
2018-12-30T13:58:05.542Z,1.60
2018-12-30T14:03:11.124Z,1.95
2018-12-30T14:08:17.002Z,1.80
2018-12-30T14:13:22.682Z,2.47
2018-12-30T14:18:28.303Z,2.40
2018-12-30T14:23:34.104Z,2.20
2018-12-30T14:28:39.541Z,2.50
2018-12-30T14:33:45.181Z,2.63
2018-12-30T14:38:50.901Z,2.77
2018-12-30T14:43:56.645Z,2.43
2018-12-30T14:49:02.141Z,2.83
2018-12-30T14:54:08.513Z,2.60
2018-12-30T14:59:14.042Z,3.20
2018-12-30T15:04:19.746Z,3.27
2018-12-30T15:09:25.466Z,3.40
2018-12-30T15:14:31.314Z,3.40
2018-12-30T15:19:36.894Z,3.27
2018-12-30T15:24:42.573Z,3.47
2018-12-30T15:29:48.122Z,3.07
2018-12-30T15:34:53.794Z,3.07
2018-12-30T15:45:36.447Z,3.00
2018-12-30T15:56:03.547Z,3.73
2018-12-30T16:01:08.978Z,3.23
2018-12-30T16:06:14.808Z,3.67
2018-12-30T16:11:20.397Z,3.40
2018-12-30T16:16:26.117Z,3.53
2018-12-30T16:21:31.988Z,2.97
2018-12-30T16:26:37.394Z,3.42
2018-12-30T16:37:00.845Z,4.10
2018-12-30T16:42:06.558Z,3.53
2018-12-30T16:52:29.695Z,3.37
2018-12-30T17:03:06.855Z,3.40
2018-12-30T17:08:12.300Z,4.10
2018-12-30T17:13:17.839Z,3.83
2018-12-30T17:18:23.406Z,4.20
2018-12-30T17:28:46.304Z,3.40
2018-12-30T17:39:23.746Z,3.67
2018-12-30T17:44:29.255Z,4.10
2018-12-30T17:55:12.355Z,5.20
2018-12-30T18:05:57.423Z,4.77
2018-12-30T18:11:03.161Z,5.10
2018-12-30T18:16:08.743Z,4.37
2018-12-30T18:21:14.199Z,4.62
2018-12-30T18:26:20.387Z,4.33
2018-12-30T18:31:26.912Z,4.07
2018-12-30T18:36:33.466Z,5.03
2018-12-30T18:41:39.093Z,5.27
2018-12-30T18:46:44.833Z,4.73
2018-12-30T18:51:50.197Z,4.57
2018-12-30T18:56:56.122Z,4.70
2018-12-30T19:02:02.308Z,4.73
2018-12-30T19:07:08.105Z,4.93
2018-12-30T19:12:13.623Z,5.27
2018-12-30T19:17:19.514Z,5.27
2018-12-30T19:27:32.433Z,5.30
2018-12-30T19:32:37.889Z,5.40
2018-12-30T19:37:43.650Z,5.40
2018-12-30T19:42:49.109Z,5.67
2018-12-30T19:53:12.459Z,4.50
2018-12-30T19:58:17.928Z,4.27
2018-12-30T20:03:23.429Z,4.40
2018-12-30T20:08:29.049Z,5.00
2018-12-30T20:19:11.932Z,5.33
2018-12-30T20:29:48.945Z,7.97
2018-12-30T20:34:54.689Z,7.90
2018-12-30T20:40:00.285Z,7.27
2018-12-30T20:45:06.307Z,6.27
2018-12-30T20:50:11.985Z,5.63
2018-12-30T20:55:17.749Z,5.70
2018-12-30T21:00:23.893Z,5.67
2018-12-30T21:10:55.210Z,5.37
2018-12-30T21:16:00.746Z,5.27
2018-12-30T21:21:06.411Z,4.73
2018-12-30T21:26:11.895Z,5.37
2018-12-30T21:36:35.210Z,6.33
2018-12-30T21:41:40.758Z,6.00
2018-12-30T21:46:46.478Z,6.20
2018-12-30T21:51:52.099Z,6.23
2018-12-30T21:56:57.669Z,5.40
2018-12-30T22:02:03.578Z,5.00
2018-12-30T22:07:09.178Z,6.43
2018-12-30T22:12:14.899Z,5.13
2018-12-30T22:17:20.619Z,5.07
2018-12-30T22:22:26.158Z,4.53
2018-12-30T22:27:31.878Z,4.83
2018-12-30T22:32:37.418Z,4.30
2018-12-30T22:37:44.498Z,4.20
2018-12-30T22:42:49.908Z,4.33
2018-12-30T22:47:56.175Z,4.50
2018-12-30T22:53:01.680Z,4.58
2018-12-30T22:58:07.318Z,4.57
2018-12-30T23:03:12.999Z,4.00
2018-12-30T23:08:18.758Z,4.00
2018-12-30T23:13:24.590Z,4.13
2018-12-30T23:18:30.458Z,4.37
2018-12-30T23:23:35.937Z,5.20
2018-12-30T23:28:41.478Z,5.10
2018-12-30T23:33:47.101Z,4.50
2018-12-30T23:38:52.741Z,6.17
2018-12-30T23:43:58.222Z,5.90
2018-12-30T23:49:03.979Z,3.40
2018-12-30T23:54:09.498Z,2.97
2018-12-30T23:59:15.159Z,2.93
